sensor_id;sensor_type;location;lat;lon;timestamp;P1;durP1;ratioP1;P2;durP2;ratioP2
31764;SDS011;18338;53.240;8.798;2023-07-22T00:00:31;16.63;;;10.90;;
31764;SDS011;18338;53.240;8.798;2023-07-22T00:02:58;18.30;;;11.75;;
31764;SDS011;18338;53.240;8.798;2023-07-22T00:05:25;15.30;;;10.82;;
31764;SDS011;18338;53.240;8.798;2023-07-22T00:07:51;14.48;;;11.15;;
31764;SDS011;18338;53.240;8.798;2023-07-22T00:10:18;18.42;;;11.65;;
31764;SDS011;18338;53.240;8.798;2023-07-22T00:12:48;18.38;;;11.55;;
31764;SDS011;18338;53.240;8.798;2023-07-22T00:15:15;14.60;;;10.90;;
31764;SDS011;18338;53.240;8.798;2023-07-22T00:17:41;16.42;;;11.10;;
31764;SDS011;18338;53.240;8.798;2023-07-22T00:20:10;13.27;;;10.18;;
31764;SDS011;18338;53.240;8.798;2023-07-22T00:22:40;14.40;;;9.65;;
31764;SDS011;18338;53.240;8.798;2023-07-22T00:25:08;13.45;;;9.27;;
31764;SDS011;18338;53.240;8.798;2023-07-22T00:27:37;14.52;;;9.30;;
31764;SDS011;18338;53.240;8.798;2023-07-22T00:30:05;12.27;;;9.45;;
31764;SDS011;18338;53.240;8.798;2023-07-22T00:32:33;13.90;;;9.43;;
31764;SDS011;18338;53.240;8.798;2023-07-22T00:35:00;12.43;;;9.73;;
31764;SDS011;18338;53.240;8.798;2023-07-22T00:37:27;12.90;;;8.48;;
31764;SDS011;18338;53.240;8.798;2023-07-22T00:39:54;12.98;;;9.00;;
31764;SDS011;18338;53.240;8.798;2023-07-22T00:42:21;14.93;;;9.30;;
31764;SDS011;18338;53.240;8.798;2023-07-22T00:44:48;11.52;;;8.40;;
31764;SDS011;18338;53.240;8.798;2023-07-22T00:47:15;14.43;;;8.38;;
31764;SDS011;18338;53.240;8.798;2023-07-22T00:49:43;15.02;;;8.88;;
31764;SDS011;18338;53.240;8.798;2023-07-22T00:52:13;11.25;;;7.95;;
31764;SDS011;18338;53.240;8.798;2023-07-22T00:54:40;12.18;;;8.07;;
31764;SDS011;18338;53.240;8.798;2023-07-22T00:57:07;13.40;;;8.13;;
31764;SDS011;18338;53.240;8.798;2023-07-22T00:59:33;12.00;;;7.60;;
31764;SDS011;18338;53.240;8.798;2023-07-22T01:02:01;12.88;;;8.20;;
31764;SDS011;18338;53.240;8.798;2023-07-22T01:04:27;13.38;;;7.95;;
31764;SDS011;18338;53.240;8.798;2023-07-22T01:06:54;12.20;;;8.50;;
31764;SDS011;18338;53.240;8.798;2023-07-22T01:09:21;13.40;;;7.95;;
31764;SDS011;18338;53.240;8.798;2023-07-22T01:11:48;13.50;;;8.18;;
31764;SDS011;18338;53.240;8.798;2023-07-22T01:14:15;10.82;;;8.20;;
31764;SDS011;18338;53.240;8.798;2023-07-22T01:16:41;13.82;;;9.40;;
31764;SDS011;18338;53.240;8.798;2023-07-22T01:19:09;12.13;;;7.68;;
31764;SDS011;18338;53.240;8.798;2023-07-22T01:21:39;13.10;;;8.68;;
31764;SDS011;18338;53.240;8.798;2023-07-22T01:24:08;11.82;;;7.88;;
31764;SDS011;18338;53.240;8.798;2023-07-22T01:26:35;12.80;;;8.35;;
31764;SDS011;18338;53.240;8.798;2023-07-22T01:29:05;13.25;;;8.80;;
31764;SDS011;18338;53.240;8.798;2023-07-22T01:31:35;16.15;;;8.93;;
31764;SDS011;18338;53.240;8.798;2023-07-22T01:34:02;15.18;;;8.70;;
31764;SDS011;18338;53.240;8.798;2023-07-22T01:36:30;12.27;;;8.23;;
31764;SDS011;18338;53.240;8.798;2023-07-22T01:38:57;11.73;;;8.07;;
31764;SDS011;18338;53.240;8.798;2023-07-22T01:41:23;12.95;;;8.43;;
31764;SDS011;18338;53.240;8.798;2023-07-22T01:43:50;13.00;;;8.23;;
31764;SDS011;18338;53.240;8.798;2023-07-22T01:46:17;12.38;;;8.40;;
31764;SDS011;18338;53.240;8.798;2023-07-22T01:48:44;13.80;;;8.65;;
31764;SDS011;18338;53.240;8.798;2023-07-22T01:51:11;14.20;;;8.25;;
31764;SDS011;18338;53.240;8.798;2023-07-22T01:53:37;14.75;;;8.38;;
31764;SDS011;18338;53.240;8.798;2023-07-22T01:56:04;13.45;;;7.35;;
31764;SDS011;18338;53.240;8.798;2023-07-22T01:58:32;13.38;;;8.02;;
31764;SDS011;18338;53.240;8.798;2023-07-22T02:00:59;15.13;;;8.15;;
31764;SDS011;18338;53.240;8.798;2023-07-22T02:03:25;11.48;;;7.88;;
31764;SDS011;18338;53.240;8.798;2023-07-22T02:06:01;12.23;;;7.85;;
31764;SDS011;18338;53.240;8.798;2023-07-22T02:08:29;13.75;;;8.13;;
31764;SDS011;18338;53.240;8.798;2023-07-22T02:11:01;14.10;;;7.63;;
31764;SDS011;18338;53.240;8.798;2023-07-22T02:13:30;13.85;;;8.23;;
31764;SDS011;18338;53.240;8.798;2023-07-22T02:15:58;10.80;;;7.57;;
31764;SDS011;18338;53.240;8.798;2023-07-22T02:18:25;14.05;;;8.63;;
31764;SDS011;18338;53.240;8.798;2023-07-22T02:20:52;11.07;;;7.57;;
31764;SDS011;18338;53.240;8.798;2023-07-22T02:23:22;13.30;;;8.13;;
31764;SDS011;18338;53.240;8.798;2023-07-22T02:25:50;12.57;;;7.60;;
31764;SDS011;18338;53.240;8.798;2023-07-22T02:28:18;13.23;;;8.40;;
31764;SDS011;18338;53.240;8.798;2023-07-22T02:30:48;11.85;;;7.68;;
31764;SDS011;18338;53.240;8.798;2023-07-22T02:33:15;16.30;;;7.97;;
31764;SDS011;18338;53.240;8.798;2023-07-22T02:35:42;16.05;;;8.65;;
31764;SDS011;18338;53.240;8.798;2023-07-22T02:38:08;12.13;;;7.82;;
31764;SDS011;18338;53.240;8.798;2023-07-22T02:40:36;12.18;;;8.15;;
31764;SDS011;18338;53.240;8.798;2023-07-22T02:43:04;16.08;;;9.40;;
31764;SDS011;18338;53.240;8.798;2023-07-22T02:45:33;15.38;;;8.30;;
31764;SDS011;18338;53.240;8.798;2023-07-22T02:48:00;13.20;;;7.80;;
31764;SDS011;18338;53.240;8.798;2023-07-22T02:50:27;12.90;;;7.82;;
31764;SDS011;18338;53.240;8.798;2023-07-22T02:52:54;17.23;;;8.45;;
31764;SDS011;18338;53.240;8.798;2023-07-22T02:55:21;16.00;;;8.63;;
31764;SDS011;18338;53.240;8.798;2023-07-22T02:57:49;15.00;;;8.93;;
31764;SDS011;18338;53.240;8.798;2023-07-22T03:00:18;16.50;;;8.77;;
31764;SDS011;18338;53.240;8.798;2023-07-22T03:02:50;19.17;;;9.20;;
31764;SDS011;18338;53.240;8.798;2023-07-22T03:05:19;14.85;;;9.07;;
31764;SDS011;18338;53.240;8.798;2023-07-22T03:07:46;17.52;;;9.32;;
31764;SDS011;18338;53.240;8.798;2023-07-22T03:10:13;15.52;;;8.50;;
31764;SDS011;18338;53.240;8.798;2023-07-22T03:12:40;13.73;;;8.55;;
31764;SDS011;18338;53.240;8.798;2023-07-22T03:15:07;17.75;;;9.05;;
31764;SDS011;18338;53.240;8.798;2023-07-22T03:17:36;21.52;;;8.98;;
31764;SDS011;18338;53.240;8.798;2023-07-22T03:20:03;16.63;;;9.10;;
31764;SDS011;18338;53.240;8.798;2023-07-22T03:22:35;16.75;;;9.73;;
31764;SDS011;18338;53.240;8.798;2023-07-22T03:25:02;16.08;;;8.70;;
31764;SDS011;18338;53.240;8.798;2023-07-22T03:27:34;16.58;;;8.60;;
31764;SDS011;18338;53.240;8.798;2023-07-22T03:30:02;17.08;;;8.95;;
31764;SDS011;18338;53.240;8.798;2023-07-22T03:32:30;13.65;;;8.77;;
31764;SDS011;18338;53.240;8.798;2023-07-22T03:34:56;15.70;;;9.02;;
31764;SDS011;18338;53.240;8.798;2023-07-22T03:37:23;16.38;;;10.32;;
31764;SDS011;18338;53.240;8.798;2023-07-22T03:39:50;13.93;;;8.05;;
31764;SDS011;18338;53.240;8.798;2023-07-22T03:42:17;17.58;;;9.38;;
31764;SDS011;18338;53.240;8.798;2023-07-22T03:44:43;14.82;;;8.50;;
31764;SDS011;18338;53.240;8.798;2023-07-22T03:47:10;17.23;;;8.63;;
31764;SDS011;18338;53.240;8.798;2023-07-22T03:49:37;18.75;;;8.70;;
31764;SDS011;18338;53.240;8.798;2023-07-22T03:52:04;15.23;;;8.65;;
31764;SDS011;18338;53.240;8.798;2023-07-22T03:54:31;18.48;;;9.00;;
31764;SDS011;18338;53.240;8.798;2023-07-22T03:56:58;15.25;;;8.77;;
31764;SDS011;18338;53.240;8.798;2023-07-22T03:59:24;18.85;;;9.27;;
31764;SDS011;18338;53.240;8.798;2023-07-22T04:01:51;16.35;;;8.48;;
31764;SDS011;18338;53.240;8.798;2023-07-22T04:04:18;16.42;;;8.63;;
31764;SDS011;18338;53.240;8.798;2023-07-22T04:06:45;14.02;;;8.35;;
31764;SDS011;18338;53.240;8.798;2023-07-22T04:09:12;16.20;;;8.65;;
31764;SDS011;18338;53.240;8.798;2023-07-22T04:11:39;16.58;;;8.85;;
31764;SDS011;18338;53.240;8.798;2023-07-22T04:14:05;14.77;;;8.27;;
31764;SDS011;18338;53.240;8.798;2023-07-22T04:16:33;16.92;;;8.85;;
31764;SDS011;18338;53.240;8.798;2023-07-22T04:18:59;15.68;;;9.18;;
31764;SDS011;18338;53.240;8.798;2023-07-22T04:21:26;16.80;;;9.25;;
31764;SDS011;18338;53.240;8.798;2023-07-22T04:23:53;17.08;;;8.55;;
31764;SDS011;18338;53.240;8.798;2023-07-22T04:26:20;13.32;;;7.82;;
31764;SDS011;18338;53.240;8.798;2023-07-22T04:28:47;16.85;;;8.32;;
31764;SDS011;18338;53.240;8.798;2023-07-22T04:31:14;15.38;;;7.78;;
31764;SDS011;18338;53.240;8.798;2023-07-22T04:33:40;14.93;;;7.80;;
31764;SDS011;18338;53.240;8.798;2023-07-22T04:36:07;15.13;;;8.82;;
31764;SDS011;18338;53.240;8.798;2023-07-22T04:38:34;12.98;;;7.35;;
31764;SDS011;18338;53.240;8.798;2023-07-22T04:41:02;15.57;;;8.13;;
31764;SDS011;18338;53.240;8.798;2023-07-22T04:43:30;16.15;;;7.95;;
31764;SDS011;18338;53.240;8.798;2023-07-22T04:45:57;15.65;;;8.45;;
31764;SDS011;18338;53.240;8.798;2023-07-22T04:48:24;12.38;;;7.40;;
31764;SDS011;18338;53.240;8.798;2023-07-22T04:50:50;11.80;;;7.63;;
31764;SDS011;18338;53.240;8.798;2023-07-22T04:53:17;13.95;;;8.00;;
31764;SDS011;18338;53.240;8.798;2023-07-22T04:55:45;16.40;;;7.35;;
31764;SDS011;18338;53.240;8.798;2023-07-22T04:58:12;13.35;;;7.38;;
31764;SDS011;18338;53.240;8.798;2023-07-22T05:00:38;12.60;;;7.20;;
31764;SDS011;18338;53.240;8.798;2023-07-22T05:03:05;9.85;;;6.80;;
31764;SDS011;18338;53.240;8.798;2023-07-22T05:05:32;10.88;;;6.47;;
31764;SDS011;18338;53.240;8.798;2023-07-22T05:07:59;11.07;;;5.88;;
31764;SDS011;18338;53.240;8.798;2023-07-22T05:10:26;11.43;;;6.22;;
31764;SDS011;18338;53.240;8.798;2023-07-22T05:12:55;10.10;;;5.70;;
31764;SDS011;18338;53.240;8.798;2023-07-22T05:15:23;8.18;;;5.25;;
31764;SDS011;18338;53.240;8.798;2023-07-22T05:17:50;8.25;;;5.50;;
31764;SDS011;18338;53.240;8.798;2023-07-22T05:20:17;8.60;;;6.03;;
31764;SDS011;18338;53.240;8.798;2023-07-22T05:22:44;9.00;;;5.88;;
31764;SDS011;18338;53.240;8.798;2023-07-22T05:25:11;10.27;;;5.85;;
31764;SDS011;18338;53.240;8.798;2023-07-22T05:27:38;9.15;;;5.68;;
31764;SDS011;18338;53.240;8.798;2023-07-22T05:30:06;12.40;;;6.88;;
31764;SDS011;18338;53.240;8.798;2023-07-22T05:32:51;14.57;;;6.32;;
31764;SDS011;18338;53.240;8.798;2023-07-22T05:35:19;10.13;;;6.10;;
31764;SDS011;18338;53.240;8.798;2023-07-22T05:37:46;10.00;;;6.28;;
31764;SDS011;18338;53.240;8.798;2023-07-22T05:40:12;9.50;;;6.00;;
31764;SDS011;18338;53.240;8.798;2023-07-22T05:42:39;10.40;;;5.80;;
31764;SDS011;18338;53.240;8.798;2023-07-22T05:45:07;8.45;;;5.22;;
31764;SDS011;18338;53.240;8.798;2023-07-22T05:47:34;8.98;;;4.95;;
31764;SDS011;18338;53.240;8.798;2023-07-22T05:50:01;5.85;;;4.30;;
31764;SDS011;18338;53.240;8.798;2023-07-22T05:52:30;8.20;;;4.60;;
31764;SDS011;18338;53.240;8.798;2023-07-22T05:54:56;6.68;;;4.25;;
31764;SDS011;18338;53.240;8.798;2023-07-22T05:57:23;7.47;;;4.68;;
31764;SDS011;18338;53.240;8.798;2023-07-22T05:59:50;6.70;;;4.57;;
31764;SDS011;18338;53.240;8.798;2023-07-22T06:02:33;7.03;;;4.40;;
31764;SDS011;18338;53.240;8.798;2023-07-22T06:05:00;5.82;;;4.10;;
31764;SDS011;18338;53.240;8.798;2023-07-22T06:07:27;5.35;;;3.83;;
31764;SDS011;18338;53.240;8.798;2023-07-22T06:09:55;6.40;;;4.20;;
31764;SDS011;18338;53.240;8.798;2023-07-22T06:12:21;4.53;;;3.72;;
31764;SDS011;18338;53.240;8.798;2023-07-22T06:14:48;6.15;;;3.60;;
31764;SDS011;18338;53.240;8.798;2023-07-22T06:17:16;6.60;;;3.50;;
31764;SDS011;18338;53.240;8.798;2023-07-22T06:19:43;4.13;;;3.00;;
31764;SDS011;18338;53.240;8.798;2023-07-22T06:22:10;5.97;;;3.50;;
31764;SDS011;18338;53.240;8.798;2023-07-22T06:24:36;4.10;;;3.30;;
31764;SDS011;18338;53.240;8.798;2023-07-22T06:27:03;4.63;;;3.08;;
31764;SDS011;18338;53.240;8.798;2023-07-22T06:29:30;7.38;;;3.47;;
31764;SDS011;18338;53.240;8.798;2023-07-22T06:31:57;4.65;;;3.03;;
31764;SDS011;18338;53.240;8.798;2023-07-22T06:34:23;5.20;;;3.10;;
31764;SDS011;18338;53.240;8.798;2023-07-22T06:36:50;5.68;;;2.88;;
31764;SDS011;18338;53.240;8.798;2023-07-22T06:39:17;3.97;;;2.85;;
31764;SDS011;18338;53.240;8.798;2023-07-22T06:41:44;3.60;;;2.35;;
31764;SDS011;18338;53.240;8.798;2023-07-22T06:44:10;3.92;;;2.85;;
31764;SDS011;18338;53.240;8.798;2023-07-22T06:46:37;4.38;;;2.80;;
31764;SDS011;18338;53.240;8.798;2023-07-22T06:49:04;4.78;;;2.58;;
31764;SDS011;18338;53.240;8.798;2023-07-22T06:51:31;2.83;;;2.45;;
31764;SDS011;18338;53.240;8.798;2023-07-22T06:53:57;3.78;;;2.58;;
31764;SDS011;18338;53.240;8.798;2023-07-22T06:56:24;3.63;;;2.55;;
31764;SDS011;18338;53.240;8.798;2023-07-22T06:58:52;3.95;;;2.88;;
31764;SDS011;18338;53.240;8.798;2023-07-22T07:01:19;2.65;;;2.20;;
31764;SDS011;18338;53.240;8.798;2023-07-22T07:03:46;3.40;;;2.30;;
31764;SDS011;18338;53.240;8.798;2023-07-22T07:06:13;4.07;;;2.35;;
31764;SDS011;18338;53.240;8.798;2023-07-22T07:08:39;2.28;;;1.95;;
31764;SDS011;18338;53.240;8.798;2023-07-22T07:11:06;3.28;;;1.85;;
31764;SDS011;18338;53.240;8.798;2023-07-22T07:13:33;3.58;;;1.70;;
31764;SDS011;18338;53.240;8.798;2023-07-22T07:16:19;2.78;;;1.55;;
31764;SDS011;18338;53.240;8.798;2023-07-22T07:18:54;2.60;;;1.52;;
31764;SDS011;18338;53.240;8.798;2023-07-22T07:21:21;1.50;;;1.30;;
31764;SDS011;18338;53.240;8.798;2023-07-22T07:23:48;2.00;;;1.40;;
31764;SDS011;18338;53.240;8.798;2023-07-22T07:26:18;1.85;;;1.27;;
31764;SDS011;18338;53.240;8.798;2023-07-22T07:28:46;1.75;;;1.27;;
31764;SDS011;18338;53.240;8.798;2023-07-22T07:31:13;2.65;;;1.40;;
31764;SDS011;18338;53.240;8.798;2023-07-22T07:33:40;2.15;;;1.73;;
31764;SDS011;18338;53.240;8.798;2023-07-22T07:36:07;2.92;;;1.45;;
31764;SDS011;18338;53.240;8.798;2023-07-22T07:38:33;1.60;;;1.25;;
31764;SDS011;18338;53.240;8.798;2023-07-22T07:41:04;2.05;;;1.55;;
31764;SDS011;18338;53.240;8.798;2023-07-22T07:43:35;4.15;;;1.40;;
31764;SDS011;18338;53.240;8.798;2023-07-22T07:48:54;2.45;;;1.27;;
31764;SDS011;18338;53.240;8.798;2023-07-22T07:51:27;2.17;;;1.17;;
31764;SDS011;18338;53.240;8.798;2023-07-22T07:53:56;2.10;;;1.40;;
31764;SDS011;18338;53.240;8.798;2023-07-22T07:56:24;1.48;;;1.10;;
31764;SDS011;18338;53.240;8.798;2023-07-22T07:58:52;2.60;;;1.30;;
31764;SDS011;18338;53.240;8.798;2023-07-22T08:01:20;2.05;;;1.70;;
31764;SDS011;18338;53.240;8.798;2023-07-22T08:03:47;3.05;;;1.42;;
31764;SDS011;18338;53.240;8.798;2023-07-22T08:06:14;2.60;;;1.40;;
31764;SDS011;18338;53.240;8.798;2023-07-22T08:08:45;2.72;;;1.20;;
31764;SDS011;18338;53.240;8.798;2023-07-22T08:11:12;1.55;;;1.45;;
31764;SDS011;18338;53.240;8.798;2023-07-22T08:13:41;2.33;;;1.60;;
31764;SDS011;18338;53.240;8.798;2023-07-22T08:16:10;2.17;;;1.30;;
31764;SDS011;18338;53.240;8.798;2023-07-22T08:18:38;3.63;;;1.45;;
31764;SDS011;18338;53.240;8.798;2023-07-22T08:21:05;2.88;;;1.35;;
31764;SDS011;18338;53.240;8.798;2023-07-22T08:23:35;1.80;;;1.52;;
31764;SDS011;18338;53.240;8.798;2023-07-22T08:26:03;2.30;;;1.58;;
31764;SDS011;18338;53.240;8.798;2023-07-22T08:28:32;3.97;;;1.67;;
31764;SDS011;18338;53.240;8.798;2023-07-22T08:31:01;1.90;;;1.63;;
31764;SDS011;18338;53.240;8.798;2023-07-22T08:33:28;2.80;;;1.70;;
31764;SDS011;18338;53.240;8.798;2023-07-22T08:36:07;3.30;;;2.00;;
31764;SDS011;18338;53.240;8.798;2023-07-22T08:38:34;2.67;;;1.80;;
31764;SDS011;18338;53.240;8.798;2023-07-22T08:41:01;2.10;;;1.58;;
31764;SDS011;18338;53.240;8.798;2023-07-22T08:43:28;2.80;;;1.70;;
31764;SDS011;18338;53.240;8.798;2023-07-22T08:45:56;3.17;;;1.58;;
31764;SDS011;18338;53.240;8.798;2023-07-22T08:48:27;3.20;;;1.83;;
31764;SDS011;18338;53.240;8.798;2023-07-22T08:51:30;2.28;;;1.77;;
31764;SDS011;18338;53.240;8.798;2023-07-22T08:53:50;2.72;;;1.80;;
31764;SDS011;18338;53.240;8.798;2023-07-22T08:56:20;2.05;;;1.70;;
31764;SDS011;18338;53.240;8.798;2023-07-22T08:58:47;2.83;;;1.90;;
31764;SDS011;18338;53.240;8.798;2023-07-22T09:01:15;2.25;;;2.00;;
31764;SDS011;18338;53.240;8.798;2023-07-22T09:03:42;3.08;;;2.20;;
31764;SDS011;18338;53.240;8.798;2023-07-22T09:06:10;2.70;;;2.13;;
31764;SDS011;18338;53.240;8.798;2023-07-22T09:08:37;2.88;;;2.17;;
31764;SDS011;18338;53.240;8.798;2023-07-22T09:11:05;3.15;;;2.72;;
31764;SDS011;18338;53.240;8.798;2023-07-22T09:13:32;4.55;;;2.67;;
31764;SDS011;18338;53.240;8.798;2023-07-22T09:16:02;3.13;;;2.55;;
31764;SDS011;18338;53.240;8.798;2023-07-22T09:18:29;4.05;;;2.60;;
31764;SDS011;18338;53.240;8.798;2023-07-22T09:20:59;3.22;;;2.85;;
31764;SDS011;18338;53.240;8.798;2023-07-22T09:23:35;4.47;;;3.10;;
31764;SDS011;18338;53.240;8.798;2023-07-22T09:26:09;3.65;;;3.20;;
31764;SDS011;18338;53.240;8.798;2023-07-22T09:28:47;3.97;;;3.28;;
31764;SDS011;18338;53.240;8.798;2023-07-22T09:31:15;6.30;;;3.20;;
31764;SDS011;18338;53.240;8.798;2023-07-22T09:33:42;4.03;;;3.20;;
31764;SDS011;18338;53.240;8.798;2023-07-22T09:36:10;3.95;;;3.25;;
31764;SDS011;18338;53.240;8.798;2023-07-22T09:38:39;4.03;;;3.63;;
31764;SDS011;18338;53.240;8.798;2023-07-22T09:41:06;3.67;;;3.20;;
31764;SDS011;18338;53.240;8.798;2023-07-22T09:43:35;4.68;;;3.90;;
31764;SDS011;18338;53.240;8.798;2023-07-22T09:46:10;4.22;;;3.42;;
31764;SDS011;18338;53.240;8.798;2023-07-22T09:48:40;4.32;;;3.92;;
31764;SDS011;18338;53.240;8.798;2023-07-22T09:51:13;4.93;;;3.67;;
31764;SDS011;18338;53.240;8.798;2023-07-22T09:53:44;5.35;;;4.13;;
31764;SDS011;18338;53.240;8.798;2023-07-22T09:56:12;4.72;;;4.20;;
31764;SDS011;18338;53.240;8.798;2023-07-22T09:58:39;4.40;;;3.80;;
31764;SDS011;18338;53.240;8.798;2023-07-22T10:01:06;5.82;;;3.83;;
31764;SDS011;18338;53.240;8.798;2023-07-22T10:03:33;4.68;;;4.28;;
31764;SDS011;18338;53.240;8.798;2023-07-22T10:06:04;7.03;;;4.88;;
31764;SDS011;18338;53.240;8.798;2023-07-22T10:08:33;4.90;;;4.40;;
31764;SDS011;18338;53.240;8.798;2023-07-22T10:11:05;5.35;;;4.72;;
31764;SDS011;18338;53.240;8.798;2023-07-22T10:13:35;4.88;;;4.38;;
31764;SDS011;18338;53.240;8.798;2023-07-22T10:16:02;6.13;;;4.63;;
31764;SDS011;18338;53.240;8.798;2023-07-22T10:18:30;4.43;;;3.78;;
31764;SDS011;18338;53.240;8.798;2023-07-22T10:20:58;4.75;;;4.15;;
31764;SDS011;18338;53.240;8.798;2023-07-22T10:23:26;4.68;;;4.22;;
31764;SDS011;18338;53.240;8.798;2023-07-22T10:25:53;5.53;;;4.75;;
31764;SDS011;18338;53.240;8.798;2023-07-22T10:28:21;5.55;;;5.03;;
31764;SDS011;18338;53.240;8.798;2023-07-22T10:30:49;5.60;;;4.32;;
31764;SDS011;18338;53.240;8.798;2023-07-22T10:33:18;6.53;;;4.95;;
31764;SDS011;18338;53.240;8.798;2023-07-22T10:36:02;6.45;;;5.75;;
31764;SDS011;18338;53.240;8.798;2023-07-22T10:38:31;6.30;;;5.40;;
31764;SDS011;18338;53.240;8.798;2023-07-22T10:40:58;5.78;;;5.05;;
31764;SDS011;18338;53.240;8.798;2023-07-22T10:43:33;6.00;;;5.40;;
31764;SDS011;18338;53.240;8.798;2023-07-22T10:46:10;8.18;;;5.53;;
31764;SDS011;18338;53.240;8.798;2023-07-22T10:48:40;6.55;;;5.22;;
31764;SDS011;18338;53.240;8.798;2023-07-22T10:51:11;6.45;;;4.97;;
31764;SDS011;18338;53.240;8.798;2023-07-22T10:53:44;6.57;;;5.15;;
31764;SDS011;18338;53.240;8.798;2023-07-22T10:56:16;4.95;;;4.28;;
31764;SDS011;18338;53.240;8.798;2023-07-22T11:04:05;5.28;;;4.78;;
31764;SDS011;18338;53.240;8.798;2023-07-22T11:07:08;5.18;;;4.65;;
31764;SDS011;18338;53.240;8.798;2023-07-22T11:09:35;5.60;;;4.43;;
31764;SDS011;18338;53.240;8.798;2023-07-22T11:12:07;6.68;;;5.07;;
31764;SDS011;18338;53.240;8.798;2023-07-22T11:14:38;6.82;;;5.00;;
31764;SDS011;18338;53.240;8.798;2023-07-22T11:17:05;8.80;;;5.32;;
31764;SDS011;18338;53.240;8.798;2023-07-22T11:19:37;5.50;;;4.68;;
31764;SDS011;18338;53.240;8.798;2023-07-22T11:22:05;6.35;;;4.93;;
31764;SDS011;18338;53.240;8.798;2023-07-22T11:24:32;6.07;;;5.30;;
31764;SDS011;18338;53.240;8.798;2023-07-22T11:27:04;7.13;;;4.43;;
31764;SDS011;18338;53.240;8.798;2023-07-22T11:29:32;8.13;;;5.25;;
31764;SDS011;18338;53.240;8.798;2023-07-22T11:31:59;5.38;;;4.45;;
31764;SDS011;18338;53.240;8.798;2023-07-22T11:34:26;8.52;;;3.78;;
31764;SDS011;18338;53.240;8.798;2023-07-22T11:36:54;4.00;;;3.60;;
31764;SDS011;18338;53.240;8.798;2023-07-22T11:39:22;4.85;;;3.80;;
31764;SDS011;18338;53.240;8.798;2023-07-22T11:41:51;4.95;;;3.75;;
31764;SDS011;18338;53.240;8.798;2023-07-22T11:44:19;4.22;;;3.55;;
31764;SDS011;18338;53.240;8.798;2023-07-22T11:46:48;5.28;;;4.28;;
31764;SDS011;18338;53.240;8.798;2023-07-22T11:49:21;6.03;;;4.05;;
31764;SDS011;18338;53.240;8.798;2023-07-22T11:52:10;5.20;;;4.35;;
31764;SDS011;18338;53.240;8.798;2023-07-22T11:54:41;5.65;;;4.65;;
31764;SDS011;18338;53.240;8.798;2023-07-22T11:57:19;5.72;;;4.30;;
31764;SDS011;18338;53.240;8.798;2023-07-22T11:59:48;5.13;;;4.63;;
31764;SDS011;18338;53.240;8.798;2023-07-22T12:02:17;4.40;;;4.00;;
31764;SDS011;18338;53.240;8.798;2023-07-22T12:04:57;4.82;;;4.05;;
31764;SDS011;18338;53.240;8.798;2023-07-22T12:07:32;5.15;;;4.00;;
31764;SDS011;18338;53.240;8.798;2023-07-22T12:10:02;6.15;;;3.88;;
31764;SDS011;18338;53.240;8.798;2023-07-22T12:12:41;5.75;;;3.85;;
31764;SDS011;18338;53.240;8.798;2023-07-22T12:15:13;4.13;;;3.30;;
31764;SDS011;18338;53.240;8.798;2023-07-22T12:17:46;5.78;;;4.38;;
31764;SDS011;18338;53.240;8.798;2023-07-22T12:20:28;4.90;;;3.85;;
31764;SDS011;18338;53.240;8.798;2023-07-22T12:22:57;4.55;;;4.05;;
31764;SDS011;18338;53.240;8.798;2023-07-22T12:25:24;5.07;;;4.55;;
31764;SDS011;18338;53.240;8.798;2023-07-22T12:27:51;5.20;;;4.55;;
31764;SDS011;18338;53.240;8.798;2023-07-22T12:30:18;7.07;;;5.32;;
31764;SDS011;18338;53.240;8.798;2023-07-22T12:32:46;6.53;;;4.88;;
31764;SDS011;18338;53.240;8.798;2023-07-22T12:35:14;7.68;;;5.88;;
31764;SDS011;18338;53.240;8.798;2023-07-22T12:37:41;7.30;;;6.43;;
31764;SDS011;18338;53.240;8.798;2023-07-22T12:40:08;7.53;;;6.72;;
31764;SDS011;18338;53.240;8.798;2023-07-22T12:42:36;9.88;;;6.75;;
31764;SDS011;18338;53.240;8.798;2023-07-22T12:45:06;9.05;;;7.30;;
31764;SDS011;18338;53.240;8.798;2023-07-22T12:47:34;10.25;;;8.00;;
31764;SDS011;18338;53.240;8.798;2023-07-22T12:50:05;10.40;;;7.85;;
31764;SDS011;18338;53.240;8.798;2023-07-22T12:52:34;13.93;;;9.50;;
31764;SDS011;18338;53.240;8.798;2023-07-22T12:55:01;10.15;;;7.63;;
31764;SDS011;18338;53.240;8.798;2023-07-22T12:57:28;8.52;;;6.72;;
31764;SDS011;18338;53.240;8.798;2023-07-22T12:59:55;15.07;;;11.85;;
31764;SDS011;18338;53.240;8.798;2023-07-22T13:02:21;6.90;;;6.20;;
31764;SDS011;18338;53.240;8.798;2023-07-22T13:04:49;6.72;;;5.45;;
31764;SDS011;18338;53.240;8.798;2023-07-22T13:07:18;6.22;;;5.63;;
31764;SDS011;18338;53.240;8.798;2023-07-22T13:09:45;5.47;;;4.97;;
31764;SDS011;18338;53.240;8.798;2023-07-22T13:12:13;6.20;;;5.30;;
31764;SDS011;18338;53.240;8.798;2023-07-22T13:14:40;5.90;;;5.30;;
31764;SDS011;18338;53.240;8.798;2023-07-22T13:17:07;5.80;;;5.20;;
31764;SDS011;18338;53.240;8.798;2023-07-22T13:19:34;5.65;;;5.15;;
31764;SDS011;18338;53.240;8.798;2023-07-22T13:22:00;5.15;;;4.75;;
31764;SDS011;18338;53.240;8.798;2023-07-22T13:24:27;6.15;;;5.13;;
31764;SDS011;18338;53.240;8.798;2023-07-22T13:26:54;5.55;;;5.05;;
31764;SDS011;18338;53.240;8.798;2023-07-22T13:29:21;7.03;;;6.00;;
31764;SDS011;18338;53.240;8.798;2023-07-22T13:31:48;6.20;;;5.65;;
31764;SDS011;18338;53.240;8.798;2023-07-22T13:34:15;6.47;;;5.88;;
31764;SDS011;18338;53.240;8.798;2023-07-22T13:36:41;6.43;;;5.85;;
31764;SDS011;18338;53.240;8.798;2023-07-22T13:39:08;7.43;;;6.45;;
31764;SDS011;18338;53.240;8.798;2023-07-22T13:41:35;6.70;;;6.10;;
31764;SDS011;18338;53.240;8.798;2023-07-22T13:44:02;5.93;;;5.32;;
31764;SDS011;18338;53.240;8.798;2023-07-22T13:46:29;6.28;;;5.70;;
31764;SDS011;18338;53.240;8.798;2023-07-22T13:48:56;5.60;;;5.10;;
31764;SDS011;18338;53.240;8.798;2023-07-22T13:51:22;5.32;;;4.82;;
31764;SDS011;18338;53.240;8.798;2023-07-22T13:53:50;5.88;;;5.15;;
31764;SDS011;18338;53.240;8.798;2023-07-22T13:56:18;5.38;;;4.60;;
31764;SDS011;18338;53.240;8.798;2023-07-22T13:58:45;5.00;;;4.50;;
31764;SDS011;18338;53.240;8.798;2023-07-22T14:01:12;6.00;;;5.45;;
31764;SDS011;18338;53.240;8.798;2023-07-22T14:03:39;5.38;;;4.88;;
31764;SDS011;18338;53.240;8.798;2023-07-22T14:06:06;5.25;;;4.65;;
31764;SDS011;18338;53.240;8.798;2023-07-22T14:08:34;5.78;;;5.28;;
31764;SDS011;18338;53.240;8.798;2023-07-22T14:11:01;5.25;;;4.75;;
31764;SDS011;18338;53.240;8.798;2023-07-22T14:13:28;5.70;;;5.20;;
31764;SDS011;18338;53.240;8.798;2023-07-22T14:15:54;5.40;;;4.90;;
31764;SDS011;18338;53.240;8.798;2023-07-22T14:18:34;5.35;;;4.85;;
31764;SDS011;18338;53.240;8.798;2023-07-22T14:21:00;5.32;;;4.85;;
31764;SDS011;18338;53.240;8.798;2023-07-22T14:23:27;5.65;;;5.05;;
31764;SDS011;18338;53.240;8.798;2023-07-22T14:25:54;5.50;;;5.00;;
31764;SDS011;18338;53.240;8.798;2023-07-22T14:28:21;6.50;;;5.70;;
31764;SDS011;18338;53.240;8.798;2023-07-22T14:30:47;5.45;;;4.93;;
31764;SDS011;18338;53.240;8.798;2023-07-22T14:33:14;6.90;;;5.82;;
31764;SDS011;18338;53.240;8.798;2023-07-22T14:35:41;5.63;;;5.13;;
31764;SDS011;18338;53.240;8.798;2023-07-22T14:38:08;6.53;;;5.93;;
31764;SDS011;18338;53.240;8.798;2023-07-22T14:40:35;6.50;;;5.90;;
31764;SDS011;18338;53.240;8.798;2023-07-22T14:43:01;6.80;;;6.20;;
31764;SDS011;18338;53.240;8.798;2023-07-22T14:45:28;6.80;;;6.20;;
31764;SDS011;18338;53.240;8.798;2023-07-22T14:47:55;8.10;;;7.30;;
31764;SDS011;18338;53.240;8.798;2023-07-22T14:50:22;9.70;;;8.70;;
31764;SDS011;18338;53.240;8.798;2023-07-22T14:52:49;8.90;;;8.05;;
31764;SDS011;18338;53.240;8.798;2023-07-22T14:55:16;9.95;;;8.95;;
31764;SDS011;18338;53.240;8.798;2023-07-22T14:57:43;11.13;;;9.73;;